Aérodrome :
LOGIN :

S'inscrire | Disclaimer

   EN    FR    IT 

 










Légende :    VFR   VFR Marginal   IFR   IFR Intensif   IFR Très Intensif
Visi : 
Plafond : 
>= 8 km
>= 3000ft
5 à 8 km
1000 à 3000 ft
1500m à 5 km
500 à 1000 ft
800 à 1500m
200 à 500 ft
< 800m
< 200 ft
Symboles :   Orages  Brouillard  Fortes neiges  Fortes précipitations  Vent > 20 kt
SIGMETs :   Divers  Orages  Givrage  Turbulence  Onde Orograph.  Cendres Volcan.






- Altitude de l'aérodrome : 791 ft
- Code IATA : KRK


EPKK - Krakow-Balice

DERNIER METAR :
  • 090130Z VRB02KT CAVOK 04/M02 Q1022

METARs EXPIRÉS :
  • 090100Z 22003KT CAVOK 04/M02 Q1023
  • 090030Z VRB01KT CAVOK 04/M03 Q1023
  • 090000Z VRB02KT CAVOK 04/M03 Q1023
  • 082330Z VRB02KT CAVOK 06/M02 Q1023
  • 082300Z 22002KT CAVOK 05/M02 Q1024

TAF TAF EPKK
Valide du 09 à 00h jusqu'au 10 à 00h UTC


082330Z 0900/0924 VRB02KT CAVOK
BECMG 0907/0910 24012KT
PROB30
TEMPO 0910/0916 24015G25KT
BECMG 0916/0919 30012KT BKN014



MET'MAP, la Météo Aéronautique d'un coup d'oeil ! - Copyright ORBIFLY Décembre 2007 - Disclaimer

ORBIFLY MET'MAP TEAM :

Programmation & Développement : Alexandra Zaïnal
Sur une idée originale de : Baudouin d'Aumeries
Assistance à la programmation : Marc-Olivier Méhu
Soutien technique & logistique : Manuel Goepfert

Contact : metmap@orbifly.com




SOURCES & CREDITS :

   NOAA